sensor_id;sensor_type;location;lat;lon;timestamp;P1;durP1;ratioP1;P2;durP2;ratioP2
17259;SDS011;8746;49.230;9.220;2023-04-03T00:00:59;1.77;;;1.67;;
17259;SDS011;8746;49.230;9.220;2023-04-03T00:03:25;1.60;;;1.50;;
17259;SDS011;8746;49.230;9.220;2023-04-03T00:05:50;1.70;;;1.60;;
17259;SDS011;8746;49.230;9.220;2023-04-03T00:08:16;1.83;;;1.63;;
17259;SDS011;8746;49.230;9.220;2023-04-03T00:10:41;1.50;;;1.40;;
17259;SDS011;8746;49.230;9.220;2023-04-03T00:13:07;2.30;;;1.67;;
17259;SDS011;8746;49.230;9.220;2023-04-03T00:15:34;1.43;;;1.33;;
17259;SDS011;8746;49.230;9.220;2023-04-03T00:17:59;2.03;;;1.60;;
17259;SDS011;8746;49.230;9.220;2023-04-03T00:20:25;1.80;;;1.70;;
17259;SDS011;8746;49.230;9.220;2023-04-03T00:22:52;3.07;;;1.73;;
17259;SDS011;8746;49.230;9.220;2023-04-03T00:25:17;1.67;;;1.50;;
17259;SDS011;8746;49.230;9.220;2023-04-03T00:27:42;3.30;;;1.87;;
17259;SDS011;8746;49.230;9.220;2023-04-03T00:30:09;2.73;;;1.47;;
17259;SDS011;8746;49.230;9.220;2023-04-03T00:32:37;1.90;;;1.70;;
17259;SDS011;8746;49.230;9.220;2023-04-03T00:35:03;1.93;;;1.73;;
17259;SDS011;8746;49.230;9.220;2023-04-03T00:37:29;1.73;;;1.63;;
17259;SDS011;8746;49.230;9.220;2023-04-03T00:39:54;1.50;;;1.40;;
17259;SDS011;8746;49.230;9.220;2023-04-03T00:42:20;3.37;;;1.83;;
17259;SDS011;8746;49.230;9.220;2023-04-03T00:47:12;2.73;;;1.57;;
17259;SDS011;8746;49.230;9.220;2023-04-03T00:49:40;1.73;;;1.40;;
17259;SDS011;8746;49.230;9.220;2023-04-03T00:52:07;2.10;;;1.53;;
17259;SDS011;8746;49.230;9.220;2023-04-03T00:54:37;1.93;;;1.70;;
17259;SDS011;8746;49.230;9.220;2023-04-03T00:57:05;2.37;;;1.80;;
17259;SDS011;8746;49.230;9.220;2023-04-03T00:59:33;1.83;;;1.63;;
17259;SDS011;8746;49.230;9.220;2023-04-03T01:02:01;3.60;;;1.90;;
17259;SDS011;8746;49.230;9.220;2023-04-03T01:07:00;2.00;;;1.70;;
17259;SDS011;8746;49.230;9.220;2023-04-03T01:09:29;1.60;;;1.50;;
17259;SDS011;8746;49.230;9.220;2023-04-03T01:12:12;3.67;;;1.40;;
17259;SDS011;8746;49.230;9.220;2023-04-03T01:14:42;2.70;;;1.60;;
17259;SDS011;8746;49.230;9.220;2023-04-03T01:17:26;2.33;;;2.00;;
17259;SDS011;8746;49.230;9.220;2023-04-03T01:19:54;4.23;;;1.50;;
17259;SDS011;8746;49.230;9.220;2023-04-03T01:22:45;2.57;;;1.60;;
17259;SDS011;8746;49.230;9.220;2023-04-03T01:25:15;2.10;;;1.77;;
17259;SDS011;8746;49.230;9.220;2023-04-03T01:27:40;1.60;;;1.50;;
17259;SDS011;8746;49.230;9.220;2023-04-03T01:30:06;2.60;;;1.50;;
17259;SDS011;8746;49.230;9.220;2023-04-03T01:32:32;2.10;;;1.57;;
17259;SDS011;8746;49.230;9.220;2023-04-03T01:34:57;1.83;;;1.50;;
17259;SDS011;8746;49.230;9.220;2023-04-03T01:37:23;1.80;;;1.47;;
17259;SDS011;8746;49.230;9.220;2023-04-03T01:39:48;1.93;;;1.43;;
17259;SDS011;8746;49.230;9.220;2023-04-03T01:42:13;1.80;;;1.60;;
17259;SDS011;8746;49.230;9.220;2023-04-03T01:44:39;2.20;;;1.77;;
17259;SDS011;8746;49.230;9.220;2023-04-03T01:47:05;1.87;;;1.77;;
17259;SDS011;8746;49.230;9.220;2023-04-03T01:49:33;1.63;;;1.53;;
17259;SDS011;8746;49.230;9.220;2023-04-03T01:51:58;2.00;;;1.80;;
17259;SDS011;8746;49.230;9.220;2023-04-03T01:54:24;2.20;;;1.60;;
17259;SDS011;8746;49.230;9.220;2023-04-03T01:56:50;2.50;;;1.70;;
17259;SDS011;8746;49.230;9.220;2023-04-03T01:59:16;2.13;;;1.50;;
17259;SDS011;8746;49.230;9.220;2023-04-03T02:01:43;1.53;;;1.43;;
17259;SDS011;8746;49.230;9.220;2023-04-03T02:04:10;2.67;;;1.60;;
17259;SDS011;8746;49.230;9.220;2023-04-03T02:06:36;1.57;;;1.47;;
17259;SDS011;8746;49.230;9.220;2023-04-03T02:09:01;1.70;;;1.60;;
17259;SDS011;8746;49.230;9.220;2023-04-03T02:11:26;2.07;;;1.77;;
17259;SDS011;8746;49.230;9.220;2023-04-03T02:13:52;1.40;;;1.30;;
17259;SDS011;8746;49.230;9.220;2023-04-03T02:16:17;2.33;;;1.70;;
17259;SDS011;8746;49.230;9.220;2023-04-03T02:18:42;2.70;;;1.77;;
17259;SDS011;8746;49.230;9.220;2023-04-03T02:21:08;3.10;;;1.77;;
17259;SDS011;8746;49.230;9.220;2023-04-03T02:23:33;1.50;;;1.40;;
17259;SDS011;8746;49.230;9.220;2023-04-03T02:26:09;2.93;;;1.47;;
17259;SDS011;8746;49.230;9.220;2023-04-03T02:28:36;3.43;;;1.60;;
17259;SDS011;8746;49.230;9.220;2023-04-03T02:31:02;3.00;;;1.57;;
17259;SDS011;8746;49.230;9.220;2023-04-03T02:33:28;3.87;;;2.20;;
17259;SDS011;8746;49.230;9.220;2023-04-03T02:35:54;1.60;;;1.50;;
17259;SDS011;8746;49.230;9.220;2023-04-03T02:38:20;2.60;;;1.60;;
17259;SDS011;8746;49.230;9.220;2023-04-03T02:40:45;2.23;;;1.43;;
17259;SDS011;8746;49.230;9.220;2023-04-03T02:43:11;1.60;;;1.50;;
17259;SDS011;8746;49.230;9.220;2023-04-03T02:45:36;2.27;;;1.67;;
17259;SDS011;8746;49.230;9.220;2023-04-03T02:48:01;2.00;;;1.70;;
17259;SDS011;8746;49.230;9.220;2023-04-03T02:50:27;2.17;;;1.53;;
17259;SDS011;8746;49.230;9.220;2023-04-03T02:52:52;3.10;;;1.83;;
17259;SDS011;8746;49.230;9.220;2023-04-03T02:55:17;2.23;;;2.03;;
17259;SDS011;8746;49.230;9.220;2023-04-03T02:57:43;1.80;;;1.70;;
17259;SDS011;8746;49.230;9.220;2023-04-03T03:00:08;2.03;;;1.90;;
17259;SDS011;8746;49.230;9.220;2023-04-03T03:02:34;1.90;;;1.80;;
17259;SDS011;8746;49.230;9.220;2023-04-03T03:05:00;1.83;;;1.53;;
17259;SDS011;8746;49.230;9.220;2023-04-03T03:07:25;2.47;;;1.80;;
17259;SDS011;8746;49.230;9.220;2023-04-03T03:09:51;2.00;;;1.70;;
17259;SDS011;8746;49.230;9.220;2023-04-03T03:12:16;2.63;;;1.90;;
17259;SDS011;8746;49.230;9.220;2023-04-03T03:14:46;1.97;;;1.77;;
17259;SDS011;8746;49.230;9.220;2023-04-03T03:17:11;2.03;;;1.77;;
17259;SDS011;8746;49.230;9.220;2023-04-03T03:19:37;1.57;;;1.47;;
17259;SDS011;8746;49.230;9.220;2023-04-03T03:22:02;4.00;;;2.00;;
17259;SDS011;8746;49.230;9.220;2023-04-03T03:24:28;3.00;;;2.10;;
17259;SDS011;8746;49.230;9.220;2023-04-03T03:26:53;1.80;;;1.70;;
17259;SDS011;8746;49.230;9.220;2023-04-03T03:29:18;2.17;;;1.80;;
17259;SDS011;8746;49.230;9.220;2023-04-03T03:31:44;1.90;;;1.70;;
17259;SDS011;8746;49.230;9.220;2023-04-03T03:34:09;2.73;;;2.00;;
17259;SDS011;8746;49.230;9.220;2023-04-03T03:36:35;2.13;;;1.80;;
17259;SDS011;8746;49.230;9.220;2023-04-03T03:39:00;2.13;;;1.57;;
17259;SDS011;8746;49.230;9.220;2023-04-03T03:41:25;2.60;;;1.70;;
17259;SDS011;8746;49.230;9.220;2023-04-03T03:43:51;2.27;;;1.70;;
17259;SDS011;8746;49.230;9.220;2023-04-03T03:46:16;2.13;;;1.83;;
17259;SDS011;8746;49.230;9.220;2023-04-03T03:48:41;1.63;;;1.50;;
17259;SDS011;8746;49.230;9.220;2023-04-03T03:51:07;3.43;;;1.90;;
17259;SDS011;8746;49.230;9.220;2023-04-03T03:53:32;2.10;;;1.90;;
17259;SDS011;8746;49.230;9.220;2023-04-03T03:55:57;1.90;;;1.70;;
17259;SDS011;8746;49.230;9.220;2023-04-03T03:58:23;1.70;;;1.60;;
17259;SDS011;8746;49.230;9.220;2023-04-03T04:00:48;1.70;;;1.60;;
17259;SDS011;8746;49.230;9.220;2023-04-03T04:03:13;2.07;;;1.90;;
17259;SDS011;8746;49.230;9.220;2023-04-03T04:05:39;2.10;;;1.90;;
17259;SDS011;8746;49.230;9.220;2023-04-03T04:08:04;2.03;;;1.83;;
17259;SDS011;8746;49.230;9.220;2023-04-03T04:10:30;2.90;;;2.10;;
17259;SDS011;8746;49.230;9.220;2023-04-03T04:12:55;2.37;;;2.07;;
17259;SDS011;8746;49.230;9.220;2023-04-03T04:15:22;1.83;;;1.73;;
17259;SDS011;8746;49.230;9.220;2023-04-03T04:17:47;2.40;;;1.97;;
17259;SDS011;8746;49.230;9.220;2023-04-03T04:20:13;3.00;;;1.87;;
17259;SDS011;8746;49.230;9.220;2023-04-03T04:22:38;2.73;;;1.90;;
17259;SDS011;8746;49.230;9.220;2023-04-03T04:25:04;2.90;;;1.90;;
17259;SDS011;8746;49.230;9.220;2023-04-03T04:27:30;2.03;;;1.83;;
17259;SDS011;8746;49.230;9.220;2023-04-03T04:29:55;2.10;;;1.90;;
17259;SDS011;8746;49.230;9.220;2023-04-03T04:32:20;2.47;;;1.90;;
17259;SDS011;8746;49.230;9.220;2023-04-03T04:34:45;2.27;;;2.03;;
17259;SDS011;8746;49.230;9.220;2023-04-03T04:37:11;4.20;;;1.77;;
17259;SDS011;8746;49.230;9.220;2023-04-03T04:39:36;2.87;;;1.83;;
17259;SDS011;8746;49.230;9.220;2023-04-03T04:42:02;2.10;;;1.90;;
17259;SDS011;8746;49.230;9.220;2023-04-03T04:44:27;2.83;;;2.33;;
17259;SDS011;8746;49.230;9.220;2023-04-03T04:46:52;1.70;;;1.60;;
17259;SDS011;8746;49.230;9.220;2023-04-03T04:49:18;4.57;;;2.00;;
17259;SDS011;8746;49.230;9.220;2023-04-03T04:51:43;2.27;;;2.07;;
17259;SDS011;8746;49.230;9.220;2023-04-03T04:54:09;2.00;;;1.80;;
17259;SDS011;8746;49.230;9.220;2023-04-03T04:56:35;4.07;;;2.97;;
17259;SDS011;8746;49.230;9.220;2023-04-03T04:59:00;4.73;;;3.53;;
17259;SDS011;8746;49.230;9.220;2023-04-03T05:01:26;6.50;;;4.17;;
17259;SDS011;8746;49.230;9.220;2023-04-03T05:03:51;8.80;;;4.30;;
17259;SDS011;8746;49.230;9.220;2023-04-03T05:06:16;7.80;;;5.43;;
17259;SDS011;8746;49.230;9.220;2023-04-03T05:08:42;2.83;;;2.53;;
17259;SDS011;8746;49.230;9.220;2023-04-03T05:11:07;2.47;;;2.00;;
17259;SDS011;8746;49.230;9.220;2023-04-03T05:13:32;2.20;;;2.00;;
17259;SDS011;8746;49.230;9.220;2023-04-03T05:15:58;3.20;;;2.23;;
17259;SDS011;8746;49.230;9.220;2023-04-03T05:18:23;2.37;;;1.90;;
17259;SDS011;8746;49.230;9.220;2023-04-03T05:20:49;5.53;;;2.30;;
17259;SDS011;8746;49.230;9.220;2023-04-03T05:23:18;2.43;;;2.23;;
17259;SDS011;8746;49.230;9.220;2023-04-03T05:25:43;2.90;;;2.00;;
17259;SDS011;8746;49.230;9.220;2023-04-03T05:28:11;2.03;;;1.87;;
17259;SDS011;8746;49.230;9.220;2023-04-03T05:30:37;2.77;;;2.10;;
17259;SDS011;8746;49.230;9.220;2023-04-03T05:33:02;2.40;;;2.20;;
17259;SDS011;8746;49.230;9.220;2023-04-03T05:35:28;2.77;;;2.43;;
17259;SDS011;8746;49.230;9.220;2023-04-03T05:37:53;2.33;;;2.00;;
17259;SDS011;8746;49.230;9.220;2023-04-03T05:40:19;2.57;;;2.00;;
17259;SDS011;8746;49.230;9.220;2023-04-03T05:42:44;2.30;;;2.10;;
17259;SDS011;8746;49.230;9.220;2023-04-03T05:45:10;3.63;;;2.20;;
17259;SDS011;8746;49.230;9.220;2023-04-03T05:47:35;2.37;;;1.87;;
17259;SDS011;8746;49.230;9.220;2023-04-03T05:50:01;2.60;;;2.20;;
17259;SDS011;8746;49.230;9.220;2023-04-03T05:52:27;3.00;;;2.07;;
17259;SDS011;8746;49.230;9.220;2023-04-03T05:54:55;3.70;;;2.10;;
17259;SDS011;8746;49.230;9.220;2023-04-03T05:57:21;2.30;;;2.00;;
17259;SDS011;8746;49.230;9.220;2023-04-03T05:59:47;2.57;;;1.90;;
17259;SDS011;8746;49.230;9.220;2023-04-03T06:02:13;2.40;;;2.20;;
17259;SDS011;8746;49.230;9.220;2023-04-03T06:04:41;3.50;;;1.93;;
17259;SDS011;8746;49.230;9.220;2023-04-03T06:07:09;2.40;;;2.20;;
17259;SDS011;8746;49.230;9.220;2023-04-03T06:09:40;3.30;;;2.40;;
17259;SDS011;8746;49.230;9.220;2023-04-03T06:12:06;2.30;;;2.10;;
17259;SDS011;8746;49.230;9.220;2023-04-03T06:14:31;3.20;;;2.20;;
17259;SDS011;8746;49.230;9.220;2023-04-03T06:16:57;3.37;;;2.33;;
17259;SDS011;8746;49.230;9.220;2023-04-03T06:19:22;2.40;;;2.20;;
17259;SDS011;8746;49.230;9.220;2023-04-03T06:21:48;3.70;;;2.33;;
17259;SDS011;8746;49.230;9.220;2023-04-03T06:24:14;3.47;;;2.67;;
17259;SDS011;8746;49.230;9.220;2023-04-03T06:26:41;4.70;;;2.80;;
17259;SDS011;8746;49.230;9.220;2023-04-03T06:29:07;3.30;;;2.50;;
17259;SDS011;8746;49.230;9.220;2023-04-03T06:31:32;2.70;;;2.50;;
17259;SDS011;8746;49.230;9.220;2023-04-03T06:33:58;5.00;;;2.97;;
17259;SDS011;8746;49.230;9.220;2023-04-03T06:36:23;4.13;;;2.70;;
17259;SDS011;8746;49.230;9.220;2023-04-03T06:38:49;3.40;;;2.57;;
17259;SDS011;8746;49.230;9.220;2023-04-03T06:41:14;4.23;;;2.93;;
17259;SDS011;8746;49.230;9.220;2023-04-03T06:43:41;3.87;;;2.90;;
17259;SDS011;8746;49.230;9.220;2023-04-03T06:46:09;4.67;;;2.97;;
17259;SDS011;8746;49.230;9.220;2023-04-03T06:48:38;3.23;;;2.93;;
17259;SDS011;8746;49.230;9.220;2023-04-03T06:51:03;3.23;;;2.90;;
17259;SDS011;8746;49.230;9.220;2023-04-03T06:53:29;3.80;;;3.00;;
17259;SDS011;8746;49.230;9.220;2023-04-03T06:55:54;6.00;;;3.10;;
17259;SDS011;8746;49.230;9.220;2023-04-03T06:58:20;3.20;;;2.53;;
17259;SDS011;8746;49.230;9.220;2023-04-03T07:00:45;4.63;;;3.07;;
17259;SDS011;8746;49.230;9.220;2023-04-03T07:03:12;4.43;;;3.00;;
17259;SDS011;8746;49.230;9.220;2023-04-03T07:05:37;3.40;;;3.10;;
17259;SDS011;8746;49.230;9.220;2023-04-03T07:08:03;4.37;;;3.00;;
17259;SDS011;8746;49.230;9.220;2023-04-03T07:10:28;3.43;;;3.10;;
17259;SDS011;8746;49.230;9.220;2023-04-03T07:12:53;3.97;;;2.67;;
17259;SDS011;8746;49.230;9.220;2023-04-03T07:15:19;4.97;;;3.13;;
17259;SDS011;8746;49.230;9.220;2023-04-03T07:17:44;4.40;;;2.93;;
17259;SDS011;8746;49.230;9.220;2023-04-03T07:20:09;3.13;;;2.83;;
17259;SDS011;8746;49.230;9.220;2023-04-03T07:22:35;5.10;;;3.43;;
17259;SDS011;8746;49.230;9.220;2023-04-03T07:25:01;3.90;;;2.90;;
17259;SDS011;8746;49.230;9.220;2023-04-03T07:27:27;3.83;;;2.83;;
17259;SDS011;8746;49.230;9.220;2023-04-03T07:29:53;2.73;;;2.50;;
17259;SDS011;8746;49.230;9.220;2023-04-03T07:32:18;5.20;;;2.80;;
17259;SDS011;8746;49.230;9.220;2023-04-03T07:34:43;3.57;;;2.60;;
17259;SDS011;8746;49.230;9.220;2023-04-03T07:37:09;3.83;;;2.40;;
17259;SDS011;8746;49.230;9.220;2023-04-03T07:39:35;5.37;;;2.67;;
17259;SDS011;8746;49.230;9.220;2023-04-03T07:42:00;5.73;;;2.43;;
17259;SDS011;8746;49.230;9.220;2023-04-03T07:44:26;4.37;;;2.30;;
17259;SDS011;8746;49.230;9.220;2023-04-03T07:46:52;2.63;;;2.10;;
17259;SDS011;8746;49.230;9.220;2023-04-03T07:49:17;3.40;;;2.50;;
17259;SDS011;8746;49.230;9.220;2023-04-03T07:51:43;4.00;;;2.10;;
17259;SDS011;8746;49.230;9.220;2023-04-03T07:54:09;3.57;;;2.30;;
17259;SDS011;8746;49.230;9.220;2023-04-03T07:56:34;2.50;;;2.30;;
17259;SDS011;8746;49.230;9.220;2023-04-03T07:59:00;2.17;;;1.83;;
17259;SDS011;8746;49.230;9.220;2023-04-03T08:01:25;8.50;;;2.07;;
17259;SDS011;8746;49.230;9.220;2023-04-03T08:03:51;2.23;;;2.10;;
17259;SDS011;8746;49.230;9.220;2023-04-03T08:06:16;2.40;;;2.20;;
17259;SDS011;8746;49.230;9.220;2023-04-03T08:08:41;5.50;;;2.53;;
17259;SDS011;8746;49.230;9.220;2023-04-03T08:11:07;3.47;;;1.90;;
17259;SDS011;8746;49.230;9.220;2023-04-03T08:13:33;3.87;;;2.20;;
17259;SDS011;8746;49.230;9.220;2023-04-03T08:16:07;2.83;;;1.90;;
17259;SDS011;8746;49.230;9.220;2023-04-03T08:18:43;2.77;;;1.80;;
17259;SDS011;8746;49.230;9.220;2023-04-03T08:21:09;1.93;;;1.80;;
17259;SDS011;8746;49.230;9.220;2023-04-03T08:23:36;2.17;;;1.50;;
17259;SDS011;8746;49.230;9.220;2023-04-03T08:26:06;4.10;;;2.10;;
17259;SDS011;8746;49.230;9.220;2023-04-03T08:28:42;2.87;;;1.87;;
17259;SDS011;8746;49.230;9.220;2023-04-03T08:31:12;2.07;;;1.80;;
17259;SDS011;8746;49.230;9.220;2023-04-03T08:33:40;2.40;;;1.70;;
17259;SDS011;8746;49.230;9.220;2023-04-03T08:36:06;2.27;;;2.07;;
17259;SDS011;8746;49.230;9.220;2023-04-03T08:38:40;4.10;;;1.90;;
17259;SDS011;8746;49.230;9.220;2023-04-03T08:46:51;4.37;;;1.80;;
17259;SDS011;8746;49.230;9.220;2023-04-03T08:49:28;3.07;;;2.00;;
17259;SDS011;8746;49.230;9.220;2023-04-03T08:51:57;3.00;;;1.73;;
17259;SDS011;8746;49.230;9.220;2023-04-03T08:54:37;2.57;;;1.93;;
17259;SDS011;8746;49.230;9.220;2023-04-03T08:57:13;1.73;;;1.43;;
17259;SDS011;8746;49.230;9.220;2023-04-03T08:59:39;2.47;;;1.73;;
17259;SDS011;8746;49.230;9.220;2023-04-03T09:02:16;3.00;;;2.03;;
17259;SDS011;8746;49.230;9.220;2023-04-03T09:04:49;3.13;;;1.93;;
17259;SDS011;8746;49.230;9.220;2023-04-03T09:07:33;2.50;;;1.70;;
17259;SDS011;8746;49.230;9.220;2023-04-03T09:10:08;1.83;;;1.73;;
17259;SDS011;8746;49.230;9.220;2023-04-03T09:12:48;2.93;;;2.00;;
17259;SDS011;8746;49.230;9.220;2023-04-03T09:15:19;2.17;;;1.83;;
17259;SDS011;8746;49.230;9.220;2023-04-03T09:17:55;2.60;;;2.40;;
17259;SDS011;8746;49.230;9.220;2023-04-03T09:23:17;2.50;;;1.70;;
17259;SDS011;8746;49.230;9.220;2023-04-03T09:25:48;3.40;;;1.97;;
17259;SDS011;8746;49.230;9.220;2023-04-03T09:28:15;4.67;;;2.03;;
17259;SDS011;8746;49.230;9.220;2023-04-03T09:30:41;5.40;;;1.83;;
17259;SDS011;8746;49.230;9.220;2023-04-03T09:33:06;3.47;;;2.00;;
17259;SDS011;8746;49.230;9.220;2023-04-03T09:35:35;4.00;;;2.33;;
17259;SDS011;8746;49.230;9.220;2023-04-03T09:40:46;4.77;;;2.00;;
17259;SDS011;8746;49.230;9.220;2023-04-03T09:45:42;1.90;;;1.80;;
17259;SDS011;8746;49.230;9.220;2023-04-03T09:50:38;2.03;;;1.50;;
17259;SDS011;8746;49.230;9.220;2023-04-03T09:53:39;3.13;;;1.83;;
17259;SDS011;8746;49.230;9.220;2023-04-03T09:58:40;2.50;;;2.00;;
17259;SDS011;8746;49.230;9.220;2023-04-03T10:01:26;2.10;;;1.73;;
17259;SDS011;8746;49.230;9.220;2023-04-03T10:06:45;1.70;;;1.60;;
17259;SDS011;8746;49.230;9.220;2023-04-03T10:09:28;2.10;;;1.90;;
17259;SDS011;8746;49.230;9.220;2023-04-03T10:14:40;1.90;;;1.80;;
17259;SDS011;8746;49.230;9.220;2023-04-03T10:35:16;2.33;;;2.13;;
17259;SDS011;8746;49.230;9.220;2023-04-03T10:48:22;3.20;;;1.70;;
17259;SDS011;8746;49.230;9.220;2023-04-03T10:51:04;4.33;;;1.80;;
17259;SDS011;8746;49.230;9.220;2023-04-03T10:53:36;2.57;;;2.00;;
17259;SDS011;8746;49.230;9.220;2023-04-03T10:56:20;2.40;;;2.17;;
17259;SDS011;8746;49.230;9.220;2023-04-03T10:58:52;2.37;;;2.00;;
17259;SDS011;8746;49.230;9.220;2023-04-03T11:01:27;2.87;;;1.80;;
17259;SDS011;8746;49.230;9.220;2023-04-03T11:03:58;3.70;;;1.90;;
17259;SDS011;8746;49.230;9.220;2023-04-03T11:06:26;1.73;;;1.63;;
17259;SDS011;8746;49.230;9.220;2023-04-03T11:09:05;3.13;;;1.83;;
17259;SDS011;8746;49.230;9.220;2023-04-03T11:11:40;2.17;;;1.53;;
17259;SDS011;8746;49.230;9.220;2023-04-03T11:14:13;1.97;;;1.30;;
17259;SDS011;8746;49.230;9.220;2023-04-03T11:16:47;3.50;;;1.70;;
17259;SDS011;8746;49.230;9.220;2023-04-03T11:19:23;2.03;;;1.60;;
17259;SDS011;8746;49.230;9.220;2023-04-03T11:22:06;2.77;;;1.70;;
17259;SDS011;8746;49.230;9.220;2023-04-03T11:24:41;1.87;;;1.27;;
17259;SDS011;8746;49.230;9.220;2023-04-03T11:27:11;2.67;;;1.70;;
17259;SDS011;8746;49.230;9.220;2023-04-03T11:29:47;2.83;;;1.70;;
17259;SDS011;8746;49.230;9.220;2023-04-03T11:35:09;1.90;;;1.70;;
17259;SDS011;8746;49.230;9.220;2023-04-03T11:37:40;2.90;;;1.73;;
17259;SDS011;8746;49.230;9.220;2023-04-03T11:42:46;2.77;;;1.40;;
17259;SDS011;8746;49.230;9.220;2023-04-03T11:47:52;2.93;;;1.70;;
17259;SDS011;8746;49.230;9.220;2023-04-03T11:50:38;1.87;;;1.77;;
17259;SDS011;8746;49.230;9.220;2023-04-03T12:06:42;2.07;;;1.70;;
17259;SDS011;8746;49.230;9.220;2023-04-03T12:08:44;2.03;;;1.80;;
17259;SDS011;8746;49.230;9.220;2023-04-03T12:26:51;1.93;;;1.57;;
17259;SDS011;8746;49.230;9.220;2023-04-03T12:29:27;1.43;;;1.20;;
17259;SDS011;8746;49.230;9.220;2023-04-03T12:38:18;2.40;;;1.30;;
17259;SDS011;8746;49.230;9.220;2023-04-03T12:46:15;2.20;;;1.70;;
17259;SDS011;8746;49.230;9.220;2023-04-03T12:51:34;1.70;;;1.60;;
17259;SDS011;8746;49.230;9.220;2023-04-03T12:54:12;1.87;;;1.40;;
17259;SDS011;8746;49.230;9.220;2023-04-03T12:56:41;4.23;;;1.70;;
17259;SDS011;8746;49.230;9.220;2023-04-03T13:01:38;1.73;;;1.63;;
17259;SDS011;8746;49.230;9.220;2023-04-03T13:04:03;1.73;;;1.50;;
17259;SDS011;8746;49.230;9.220;2023-04-03T13:06:38;2.00;;;1.70;;
17259;SDS011;8746;49.230;9.220;2023-04-03T13:09:05;2.57;;;1.70;;
17259;SDS011;8746;49.230;9.220;2023-04-03T13:11:42;2.23;;;1.57;;
17259;SDS011;8746;49.230;9.220;2023-04-03T13:14:16;1.60;;;1.50;;
17259;SDS011;8746;49.230;9.220;2023-04-03T13:19:25;2.10;;;1.53;;
17259;SDS011;8746;49.230;9.220;2023-04-03T13:21:53;1.80;;;1.57;;
17259;SDS011;8746;49.230;9.220;2023-04-03T13:24:43;1.77;;;1.67;;
17259;SDS011;8746;49.230;9.220;2023-04-03T13:27:13;1.60;;;1.47;;
17259;SDS011;8746;49.230;9.220;2023-04-03T13:29:39;2.57;;;1.67;;
17259;SDS011;8746;49.230;9.220;2023-04-03T13:32:05;3.27;;;1.80;;
17259;SDS011;8746;49.230;9.220;2023-04-03T13:34:38;1.70;;;1.60;;
17259;SDS011;8746;49.230;9.220;2023-04-03T13:37:11;1.83;;;1.67;;
17259;SDS011;8746;49.230;9.220;2023-04-03T13:39:45;4.60;;;1.93;;
17259;SDS011;8746;49.230;9.220;2023-04-03T13:42:41;1.80;;;1.70;;
17259;SDS011;8746;49.230;9.220;2023-04-03T13:47:41;1.70;;;1.60;;
17259;SDS011;8746;49.230;9.220;2023-04-03T13:50:22;2.27;;;1.50;;
17259;SDS011;8746;49.230;9.220;2023-04-03T13:52:54;2.17;;;1.57;;
17259;SDS011;8746;49.230;9.220;2023-04-03T13:55:29;2.70;;;1.43;;
17259;SDS011;8746;49.230;9.220;2023-04-03T14:02:57;4.03;;;1.90;;
17259;SDS011;8746;49.230;9.220;2023-04-03T14:05:24;2.70;;;1.70;;
17259;SDS011;8746;49.230;9.220;2023-04-03T14:07:51;1.57;;;1.47;;
17259;SDS011;8746;49.230;9.220;2023-04-03T14:10:18;2.07;;;1.50;;
17259;SDS011;8746;49.230;9.220;2023-04-03T14:12:43;3.07;;;1.60;;
17259;SDS011;8746;49.230;9.220;2023-04-03T14:15:43;1.80;;;1.70;;
17259;SDS011;8746;49.230;9.220;2023-04-03T14:18:01;3.43;;;1.63;;
17259;SDS011;8746;49.230;9.220;2023-04-03T14:20:26;1.63;;;1.40;;
17259;SDS011;8746;49.230;9.220;2023-04-03T14:22:53;2.00;;;1.90;;
17259;SDS011;8746;49.230;9.220;2023-04-03T14:25:19;2.10;;;1.60;;
17259;SDS011;8746;49.230;9.220;2023-04-03T14:27:49;2.00;;;1.57;;
17259;SDS011;8746;49.230;9.220;2023-04-03T14:30:18;1.90;;;1.27;;
17259;SDS011;8746;49.230;9.220;2023-04-03T14:32:49;2.20;;;1.60;;
17259;SDS011;8746;49.230;9.220;2023-04-03T14:35:15;1.80;;;1.67;;
17259;SDS011;8746;49.230;9.220;2023-04-03T14:37:41;4.17;;;1.73;;
17259;SDS011;8746;49.230;9.220;2023-04-03T14:40:07;1.93;;;1.70;;
17259;SDS011;8746;49.230;9.220;2023-04-03T14:42:35;2.27;;;1.63;;
17259;SDS011;8746;49.230;9.220;2023-04-03T14:45:04;1.93;;;1.80;;
17259;SDS011;8746;49.230;9.220;2023-04-03T14:47:31;1.80;;;1.70;;
17259;SDS011;8746;49.230;9.220;2023-04-03T14:50:00;1.60;;;1.50;;
17259;SDS011;8746;49.230;9.220;2023-04-03T14:52:28;2.63;;;2.10;;
17259;SDS011;8746;49.230;9.220;2023-04-03T14:54:57;3.10;;;1.73;;
17259;SDS011;8746;49.230;9.220;2023-04-03T14:57:24;2.87;;;1.60;;
17259;SDS011;8746;49.230;9.220;2023-04-03T14:59:51;3.20;;;1.77;;
17259;SDS011;8746;49.230;9.220;2023-04-03T15:04:51;2.17;;;1.60;;
17259;SDS011;8746;49.230;9.220;2023-04-03T15:07:16;2.03;;;1.83;;
17259;SDS011;8746;49.230;9.220;2023-04-03T15:09:42;2.63;;;1.60;;
17259;SDS011;8746;49.230;9.220;2023-04-03T15:12:08;1.73;;;1.50;;
17259;SDS011;8746;49.230;9.220;2023-04-03T15:14:34;2.47;;;1.67;;
17259;SDS011;8746;49.230;9.220;2023-04-03T15:17:00;2.20;;;1.60;;
17259;SDS011;8746;49.230;9.220;2023-04-03T15:19:25;2.17;;;1.40;;
17259;SDS011;8746;49.230;9.220;2023-04-03T15:21:51;1.50;;;1.30;;
17259;SDS011;8746;49.230;9.220;2023-04-03T15:24:16;1.83;;;1.40;;
17259;SDS011;8746;49.230;9.220;2023-04-03T15:26:41;1.83;;;1.50;;
17259;SDS011;8746;49.230;9.220;2023-04-03T15:29:07;1.60;;;1.50;;
17259;SDS011;8746;49.230;9.220;2023-04-03T15:31:32;1.60;;;1.50;;
17259;SDS011;8746;49.230;9.220;2023-04-03T15:33:58;1.47;;;1.37;;
17259;SDS011;8746;49.230;9.220;2023-04-03T15:36:24;1.40;;;1.30;;
17259;SDS011;8746;49.230;9.220;2023-04-03T15:38:49;1.63;;;1.53;;
17259;SDS011;8746;49.230;9.220;2023-04-03T15:41:15;1.40;;;1.30;;
17259;SDS011;8746;49.230;9.220;2023-04-03T15:43:40;2.10;;;1.57;;
17259;SDS011;8746;49.230;9.220;2023-04-03T15:46:06;1.33;;;1.20;;
17259;SDS011;8746;49.230;9.220;2023-04-03T15:48:31;2.40;;;1.60;;
17259;SDS011;8746;49.230;9.220;2023-04-03T15:50:57;2.70;;;1.47;;
17259;SDS011;8746;49.230;9.220;2023-04-03T15:53:23;1.50;;;1.40;;
17259;SDS011;8746;49.230;9.220;2023-04-03T15:55:48;1.50;;;1.40;;
17259;SDS011;8746;49.230;9.220;2023-04-03T15:58:13;3.80;;;1.63;;
17259;SDS011;8746;49.230;9.220;2023-04-03T16:00:39;1.97;;;1.40;;
17259;SDS011;8746;49.230;9.220;2023-04-03T16:03:06;2.20;;;1.57;;
17259;SDS011;8746;49.230;9.220;2023-04-03T16:05:35;1.90;;;1.30;;
17259;SDS011;8746;49.230;9.220;2023-04-03T16:08:02;1.47;;;1.37;;
17259;SDS011;8746;49.230;9.220;2023-04-03T16:10:28;3.43;;;1.50;;
17259;SDS011;8746;49.230;9.220;2023-04-03T16:12:54;1.90;;;1.70;;
17259;SDS011;8746;49.230;9.220;2023-04-03T16:15:19;1.60;;;1.50;;
17259;SDS011;8746;49.230;9.220;2023-04-03T16:17:45;1.83;;;1.47;;
17259;SDS011;8746;49.230;9.220;2023-04-03T16:20:13;2.20;;;1.33;;
17259;SDS011;8746;49.230;9.220;2023-04-03T16:22:39;1.70;;;1.60;;
17259;SDS011;8746;49.230;9.220;2023-04-03T16:25:05;2.33;;;1.40;;
17259;SDS011;8746;49.230;9.220;2023-04-03T16:27:32;3.93;;;1.50;;
17259;SDS011;8746;49.230;9.220;2023-04-03T16:29:57;2.30;;;1.40;;
17259;SDS011;8746;49.230;9.220;2023-04-03T16:32:23;1.63;;;1.53;;
17259;SDS011;8746;49.230;9.220;2023-04-03T16:34:52;2.30;;;1.60;;
17259;SDS011;8746;49.230;9.220;2023-04-03T16:37:17;1.70;;;1.50;;
17259;SDS011;8746;49.230;9.220;2023-04-03T16:39:43;1.40;;;1.30;;
17259;SDS011;8746;49.230;9.220;2023-04-03T16:42:09;1.53;;;1.43;;
17259;SDS011;8746;49.230;9.220;2023-04-03T16:44:34;1.90;;;1.53;;
17259;SDS011;8746;49.230;9.220;2023-04-03T16:47:00;1.20;;;1.13;;
17259;SDS011;8746;49.230;9.220;2023-04-03T16:49:26;2.37;;;1.60;;
17259;SDS011;8746;49.230;9.220;2023-04-03T16:51:56;2.37;;;1.40;;
17259;SDS011;8746;49.230;9.220;2023-04-03T16:54:22;1.50;;;1.40;;
17259;SDS011;8746;49.230;9.220;2023-04-03T16:56:47;1.60;;;1.50;;
17259;SDS011;8746;49.230;9.220;2023-04-03T16:59:12;2.77;;;1.50;;
17259;SDS011;8746;49.230;9.220;2023-04-03T17:01:38;2.43;;;1.60;;
17259;SDS011;8746;49.230;9.220;2023-04-03T17:04:03;1.93;;;1.70;;
17259;SDS011;8746;49.230;9.220;2023-04-03T17:06:28;1.80;;;1.40;;
17259;SDS011;8746;49.230;9.220;2023-04-03T17:08:54;1.50;;;1.33;;